Lily, Wisconsin
Current Conditions -  °F | °C
As of 5:35 AM on Thursday 27 Nov 2014 (Local Time) from KAIG Reporting Station
Overcast Overcast  
Wind Chill: -4°   Ceiling: 4700
Heat Index: 10°   Visibility: 10mi
Dew Point:   Wind: 10mph
Humidity: 82%   Direction: 350°N
Pressure: 30.25"   Gusts: NA
Location:  45.261°N, 88.731°W
Report Text: KAIG 271135Z AUTO 35009KT 10SM OVC047 M12/M15 A3025 RMK AO2 T11251150
Loading
Personal Weather Stations






























Interactive Weather Map New forecast layout! Learn more

10-Day Weather Forecast

Advertisements
Track Severe Weather on mobile